createdAt,value
2023-02-26T00:03:43.038Z,99099.34
2023-02-26T00:07:44.682Z,99116.63
2023-02-26T00:11:47.613Z,99128.41
2023-02-26T00:15:56.387Z,99152.44
2023-02-26T00:19:58.769Z,99159.06
2023-02-26T00:24:02.191Z,99181.75
2023-02-26T00:28:04.467Z,99165.00
2023-02-26T00:32:06.897Z,99178.00
2023-02-26T00:36:34.621Z,99182.72
2023-02-26T00:40:48.465Z,99179.06
2023-02-26T00:44:50.789Z,99174.75
2023-02-26T00:49:10.298Z,99193.31
2023-02-26T00:53:15.156Z,99182.16
2023-02-26T00:57:17.125Z,99201.91
2023-02-26T01:01:19.201Z,99211.97
2023-02-26T01:05:21.787Z,99217.69
2023-02-26T01:09:37.585Z,99232.72
2023-02-26T01:13:39.884Z,99255.06
2023-02-26T01:18:03.150Z,99254.63
2023-02-26T01:22:15.452Z,99269.75
2023-02-26T01:26:28.082Z,99267.88
2023-02-26T01:30:31.000Z,99291.75
2023-02-26T01:34:55.050Z,99294.78
2023-02-26T01:39:23.656Z,99305.56
2023-02-26T01:43:44.428Z,99320.13
2023-02-26T01:48:00.379Z,99340.31
2023-02-26T01:52:07.162Z,99342.38
2023-02-26T01:56:17.209Z,99366.28
2023-02-26T02:00:21.440Z,99373.44
2023-02-26T02:04:24.699Z,99372.56
2023-02-26T02:08:26.782Z,99388.28
2023-02-26T02:12:47.497Z,99399.97
2023-02-26T02:17:32.500Z,99413.28
2023-02-26T02:22:32.654Z,99429.06
2023-02-26T02:26:59.056Z,99435.63
2023-02-26T02:31:19.876Z,99433.66
2023-02-26T02:35:45.444Z,99445.09
2023-02-26T02:39:53.408Z,99452.75
2023-02-26T02:43:57.413Z,99453.31
2023-02-26T02:48:05.340Z,99468.81
2023-02-26T02:52:14.293Z,99475.94
2023-02-26T02:56:24.323Z,99475.75
2023-02-26T03:00:30.338Z,99490.06
2023-02-26T03:04:32.412Z,99496.31
2023-02-26T03:08:44.077Z,99509.97
2023-02-26T03:12:45.992Z,99507.00
2023-02-26T03:17:04.768Z,99529.13
2023-02-26T03:21:27.327Z,99537.72
2023-02-26T03:25:51.906Z,99539.47
2023-02-26T03:30:14.212Z,99556.22
2023-02-26T03:34:29.062Z,99556.00
2023-02-26T03:38:55.406Z,99560.09
2023-02-26T03:43:03.476Z,99567.75
2023-02-26T03:47:12.480Z,99583.25
2023-02-26T03:51:15.046Z,99586.63
2023-02-26T03:55:46.980Z,99601.41
2023-02-26T04:00:14.930Z,99595.25
2023-02-26T04:04:25.426Z,99612.09
2023-02-26T04:08:28.837Z,99618.22
2023-02-26T04:12:30.790Z,99629.91
2023-02-26T04:16:33.184Z,99636.94
2023-02-26T04:20:35.509Z,99643.25
2023-02-26T04:24:37.419Z,99647.41
2023-02-26T04:28:41.148Z,99648.25
2023-02-26T04:32:43.205Z,99662.16
2023-02-26T04:36:46.602Z,99658.94
2023-02-26T04:40:50.777Z,99665.69
2023-02-26T04:44:53.859Z,99669.88
2023-02-26T04:48:55.852Z,99677.59
2023-02-26T04:52:57.985Z,99686.16
2023-02-26T04:57:00.537Z,99686.53
2023-02-26T05:01:02.525Z,99690.81
2023-02-26T05:05:04.820Z,99701.19
2023-02-26T05:09:06.816Z,99707.94
2023-02-26T05:13:08.803Z,99712.72
2023-02-26T05:17:12.504Z,99709.09
2023-02-26T05:21:14.626Z,99709.91
2023-02-26T05:25:16.856Z,99721.16
2023-02-26T05:29:19.450Z,99719.16
2023-02-26T05:33:21.353Z,99739.03
2023-02-26T05:37:23.307Z,99751.41
2023-02-26T05:41:24.940Z,99754.66
2023-02-26T05:45:26.883Z,99754.72
2023-02-26T05:49:28.760Z,99777.06
2023-02-26T05:53:30.804Z,99783.00
2023-02-26T05:57:32.758Z,99790.91
2023-02-26T06:01:37.148Z,99797.53
2023-02-26T06:05:39.145Z,99803.44
2023-02-26T06:09:41.084Z,99821.88
2023-02-26T06:13:43.043Z,99835.47
2023-02-26T06:17:45.086Z,99854.63
2023-02-26T06:21:47.501Z,99853.88
2023-02-26T06:25:53.411Z,99862.75
2023-02-26T06:29:55.544Z,99880.81
2023-02-26T06:33:57.445Z,99893.75
2023-02-26T06:37:59.337Z,99895.38
2023-02-26T06:42:01.309Z,99900.50
2023-02-26T06:46:03.627Z,99913.81
2023-02-26T06:50:06.543Z,99922.88
2023-02-26T06:54:08.541Z,99934.72
2023-02-26T06:58:10.535Z,99941.91
2023-02-26T07:02:18.536Z,99955.94
2023-02-26T07:06:27.307Z,99965.44
2023-02-26T07:10:29.894Z,99970.72
2023-02-26T07:14:31.817Z,99975.41
2023-02-26T07:18:35.154Z,99982.88
2023-02-26T07:22:38.083Z,99995.41
2023-02-26T07:26:40.279Z,99992.19
2023-02-26T07:30:42.947Z,100003.13
2023-02-26T07:34:44.958Z,100000.63
2023-02-26T07:38:46.889Z,100010.22
2023-02-26T07:42:48.882Z,100032.53
2023-02-26T07:46:50.846Z,100041.88
2023-02-26T07:50:53.690Z,100045.41
2023-02-26T07:54:55.868Z,100051.19
2023-02-26T07:58:57.784Z,100055.59
2023-02-26T08:02:59.712Z,100052.00
2023-02-26T08:07:02.132Z,100060.44
2023-02-26T08:11:04.277Z,100078.56
2023-02-26T08:15:06.925Z,100083.59
2023-02-26T08:19:09.170Z,100093.56
2023-02-26T08:23:11.074Z,100099.88
2023-02-26T08:27:13.706Z,100110.75
2023-02-26T08:31:16.424Z,100106.66
2023-02-26T08:35:18.558Z,100111.72
2023-02-26T08:39:20.571Z,100118.84
2023-02-26T08:43:22.834Z,100129.16
2023-02-26T08:47:28.934Z,100128.94
2023-02-26T08:51:31.230Z,100143.03
2023-02-26T08:55:33.225Z,100155.16
2023-02-26T08:59:35.167Z,100168.47
2023-02-26T09:03:37.193Z,100184.72
2023-02-26T09:07:39.218Z,100188.59
2023-02-26T09:11:41.160Z,100202.94
2023-02-26T09:15:43.157Z,100204.44
2023-02-26T09:19:45.957Z,100203.72
2023-02-26T09:23:48.215Z,100217.22
2023-02-26T09:27:50.423Z,100220.59
2023-02-26T09:31:52.459Z,100234.16
2023-02-26T09:35:54.503Z,100236.75
2023-02-26T09:39:57.041Z,100238.09
2023-02-26T09:44:19.571Z,100251.88
2023-02-26T09:48:24.427Z,100264.09
2023-02-26T09:52:55.211Z,100264.28
2023-02-26T09:56:59.818Z,100260.38
2023-02-26T10:01:12.490Z,100269.31
2023-02-26T10:05:40.966Z,100269.59
2023-02-26T10:10:11.463Z,100285.84
2023-02-26T10:14:35.586Z,100288.19
2023-02-26T10:18:45.689Z,100297.00
2023-02-26T10:23:00.423Z,100299.50
2023-02-26T10:27:27.484Z,100304.59
2023-02-26T10:31:42.904Z,100306.13
2023-02-26T10:35:52.812Z,100313.00
2023-02-26T10:40:16.659Z,100316.63
2023-02-26T10:44:25.493Z,100333.44
2023-02-26T10:49:04.491Z,100338.25
2023-02-26T10:53:12.106Z,100344.06
2023-02-26T10:57:22.973Z,100350.06
2023-02-26T11:01:27.782Z,100350.81
2023-02-26T11:05:32.766Z,100358.75
2023-02-26T11:09:38.529Z,100368.94
2023-02-26T11:13:41.657Z,100375.94
2023-02-26T11:17:45.461Z,100380.31
2023-02-26T11:21:48.064Z,100375.78
2023-02-26T11:26:24.140Z,100378.34
2023-02-26T11:30:29.830Z,100378.81
2023-02-26T11:34:32.211Z,100382.28
2023-02-26T11:38:34.371Z,100381.75
2023-02-26T11:42:42.069Z,100395.41
2023-02-26T11:46:49.368Z,100401.13
2023-02-26T11:50:56.519Z,100417.03
2023-02-26T11:55:05.648Z,100414.31
2023-02-26T11:59:17.649Z,100423.88
2023-02-26T12:03:28.855Z,100432.28
2023-02-26T12:07:31.504Z,100432.47
2023-02-26T12:12:01.236Z,100443.25
2023-02-26T12:16:26.152Z,100450.66
2023-02-26T12:20:44.568Z,100450.31
2023-02-26T12:24:55.814Z,100468.69
2023-02-26T12:29:19.494Z,100466.84
2023-02-26T12:33:47.849Z,100472.91
2023-02-26T12:38:08.000Z,100479.31
2023-02-26T12:42:38.300Z,100477.72
2023-02-26T12:47:00.425Z,100483.25
2023-02-26T12:51:17.840Z,100483.28
2023-02-26T12:55:40.098Z,100486.88
2023-02-26T13:00:05.025Z,100497.56
2023-02-26T13:04:25.574Z,100499.44
2023-02-26T13:08:43.742Z,100496.81
2023-02-26T13:12:51.930Z,100509.94
2023-02-26T13:17:10.050Z,100505.09
2023-02-26T13:21:37.906Z,100498.38
2023-02-26T13:26:09.325Z,100516.91
2023-02-26T13:30:14.498Z,100529.91
2023-02-26T13:34:35.442Z,100524.50
2023-02-26T13:39:08.347Z,100535.19
2023-02-26T13:43:29.100Z,100530.97
2023-02-26T13:47:42.721Z,100531.66
2023-02-26T13:51:54.551Z,100537.31
2023-02-26T13:56:08.090Z,100540.72
2023-02-26T14:00:35.056Z,100550.91
2023-02-26T14:05:12.810Z,100552.06
2023-02-26T14:09:24.181Z,100545.91
2023-02-26T14:13:41.838Z,100556.38
2023-02-26T14:17:52.157Z,100563.78
2023-02-26T14:22:01.912Z,100554.28
2023-02-26T14:26:10.420Z,100566.22
2023-02-26T14:30:33.834Z,100573.16
2023-02-26T14:34:45.465Z,100574.34
2023-02-26T14:38:48.755Z,100567.34
2023-02-26T14:42:58.074Z,100585.25
2023-02-26T14:47:00.544Z,100589.16
2023-02-26T14:51:02.578Z,100591.59
2023-02-26T14:55:42.209Z,100602.97
2023-02-26T14:59:53.691Z,100607.38
2023-02-26T15:04:18.739Z,100617.66
2023-02-26T15:08:30.047Z,100616.75
2023-02-26T15:12:51.887Z,100624.50
2023-02-26T15:17:15.319Z,100630.63
2023-02-26T15:21:30.464Z,100632.09
2023-02-26T15:25:39.323Z,100643.59
2023-02-26T15:29:41.935Z,100637.41
2023-02-26T15:33:45.396Z,100648.75
2023-02-26T15:37:53.238Z,100646.25
2023-02-26T15:41:56.118Z,100655.59
2023-02-26T15:46:03.279Z,100666.53
2023-02-26T15:50:07.980Z,100659.47
2023-02-26T15:54:17.662Z,100676.75
2023-02-26T15:58:23.751Z,100685.50
2023-02-26T16:02:32.133Z,100686.59
2023-02-26T16:06:40.239Z,100695.41
2023-02-26T16:10:43.940Z,100697.28
2023-02-26T16:14:53.866Z,100697.34
2023-02-26T16:18:57.326Z,100709.91
2023-02-26T16:23:05.094Z,100710.41
2023-02-26T16:27:12.903Z,100715.78
2023-02-26T16:31:21.564Z,100717.00
2023-02-26T16:35:27.873Z,100709.31
2023-02-26T16:39:31.556Z,100723.03
2023-02-26T16:43:49.953Z,100716.50
2023-02-26T16:47:55.431Z,100725.03
2023-02-26T16:51:58.573Z,100732.03
2023-02-26T16:56:01.107Z,100725.00
2023-02-26T17:00:09.624Z,100730.13
2023-02-26T17:04:16.243Z,100737.97
2023-02-26T17:08:22.986Z,100740.53
2023-02-26T17:12:40.481Z,100738.59
2023-02-26T17:16:42.695Z,100737.03
2023-02-26T17:20:44.811Z,100737.81
2023-02-26T17:24:52.608Z,100734.72
2023-02-26T17:28:54.617Z,100735.47
2023-02-26T17:32:56.665Z,100747.56
2023-02-26T17:36:59.700Z,100753.66
2023-02-26T17:41:01.860Z,100754.38
2023-02-26T17:45:03.891Z,100767.19
2023-02-26T17:49:06.173Z,100768.88
2023-02-26T17:53:08.744Z,100774.81
2023-02-26T17:57:19.462Z,100774.78
2023-02-26T18:01:23.463Z,100781.44
2023-02-26T18:05:27.702Z,100793.41
2023-02-26T18:09:29.637Z,100801.16
2023-02-26T18:13:32.558Z,100796.88
2023-02-26T18:17:34.610Z,100792.53
2023-02-26T18:21:36.729Z,100794.19
2023-02-26T18:25:39.552Z,100801.97
2023-02-26T18:29:41.718Z,100814.84
2023-02-26T18:33:44.515Z,100826.75
2023-02-26T18:37:46.942Z,100836.22
2023-02-26T18:41:49.014Z,100866.38
2023-02-26T18:45:52.504Z,100873.97
2023-02-26T18:49:54.569Z,100882.50
2023-02-26T18:53:56.614Z,100891.91
2023-02-26T18:57:58.623Z,100911.59
2023-02-26T19:02:02.263Z,100909.91
2023-02-26T19:06:08.802Z,100911.66
2023-02-26T19:10:14.548Z,100926.25
2023-02-26T19:14:16.543Z,100925.44
2023-02-26T19:18:18.921Z,100935.06
2023-02-26T19:22:21.018Z,100927.28
2023-02-26T19:26:23.559Z,100929.84
2023-02-26T19:30:26.168Z,100935.00
2023-02-26T19:34:28.268Z,100936.69
2023-02-26T19:38:30.357Z,100942.66
2023-02-26T19:42:32.340Z,100951.19
2023-02-26T19:46:34.376Z,100956.28
2023-02-26T19:50:36.719Z,100958.91
2023-02-26T19:54:38.636Z,100965.75
2023-02-26T19:58:41.335Z,100974.28
2023-02-26T20:02:43.498Z,100970.91
2023-02-26T20:06:46.002Z,100983.75
2023-02-26T20:10:56.231Z,100985.41
2023-02-26T20:14:58.205Z,100986.25
2023-02-26T20:19:00.388Z,100986.31
2023-02-26T20:23:02.824Z,100991.63
2023-02-26T20:27:07.032Z,101001.94
2023-02-26T20:31:09.853Z,100999.22
2023-02-26T20:35:12.168Z,101006.13
2023-02-26T20:39:14.837Z,101017.38
2023-02-26T20:43:17.118Z,101018.19
2023-02-26T20:47:19.224Z,101021.59
2023-02-26T20:51:21.179Z,101024.06
2023-02-26T20:55:23.290Z,101021.47
2023-02-26T20:59:25.288Z,101022.41
2023-02-26T21:03:27.441Z,101025.66
2023-02-26T21:07:29.455Z,101031.72
2023-02-26T21:11:35.196Z,101031.78
2023-02-26T21:15:38.526Z,101044.81
2023-02-26T21:19:40.602Z,101046.50
2023-02-26T21:23:43.040Z,101046.56
2023-02-26T21:27:48.562Z,101054.22
2023-02-26T21:31:53.962Z,101058.47
2023-02-26T21:35:56.169Z,101061.19
2023-02-26T21:39:58.083Z,101060.34
2023-02-26T21:44:00.133Z,101072.34
2023-02-26T21:48:03.314Z,101074.06
2023-02-26T21:52:06.897Z,101078.31
2023-02-26T21:56:08.867Z,101077.53
2023-02-26T22:00:11.168Z,101077.47
2023-02-26T22:04:16.595Z,101087.81
2023-02-26T22:08:19.223Z,101094.69
2023-02-26T22:12:21.432Z,101091.31
2023-02-26T22:16:23.527Z,101092.97
2023-02-26T22:20:25.669Z,101097.41
2023-02-26T22:24:27.807Z,101100.66
2023-02-26T22:28:29.747Z,101106.75
2023-02-26T22:32:31.791Z,101109.53
2023-02-26T22:36:36.174Z,101118.91
2023-02-26T22:40:38.192Z,101124.03
2023-02-26T22:44:40.134Z,101125.00
2023-02-26T22:48:42.096Z,101127.56
2023-02-26T22:52:44.693Z,101131.00
2023-02-26T22:56:46.739Z,101130.28
2023-02-26T23:00:49.356Z,101127.69
2023-02-26T23:04:51.510Z,101139.75
2023-02-26T23:08:53.594Z,101142.25
2023-02-26T23:13:00.045Z,101143.19
2023-02-26T23:17:02.365Z,101147.44
2023-02-26T23:21:08.139Z,101144.78
2023-02-26T23:25:11.914Z,101151.72
2023-02-26T23:29:14.040Z,101156.91
2023-02-26T23:33:15.933Z,101163.75
2023-02-26T23:37:18.036Z,101157.78
2023-02-26T23:41:19.970Z,101162.13
2023-02-26T23:45:22.593Z,101157.91
2023-02-26T23:49:24.920Z,101156.91
2023-02-26T23:53:27.059Z,101157.91
2023-02-26T23:57:29.712Z,101175.22
